sensor_id;sensor_type;location;lat;lon;timestamp;P1;durP1;ratioP1;P2;durP2;ratioP2
18280;SDS011;9266;51.132;17.062;2024-03-02T00:01:16;97.93;;;65.20;;
18280;SDS011;9266;51.132;17.062;2024-03-02T00:03:43;119.33;;;75.20;;
18280;SDS011;9266;51.132;17.062;2024-03-02T00:06:10;110.87;;;71.43;;
18280;SDS011;9266;51.132;17.062;2024-03-02T00:08:37;102.90;;;69.53;;
18280;SDS011;9266;51.132;17.062;2024-03-02T00:11:05;106.90;;;69.20;;
18280;SDS011;9266;51.132;17.062;2024-03-02T00:13:32;110.07;;;67.53;;
18280;SDS011;9266;51.132;17.062;2024-03-02T00:16:00;112.50;;;69.23;;
18280;SDS011;9266;51.132;17.062;2024-03-02T00:18:30;112.90;;;70.23;;
18280;SDS011;9266;51.132;17.062;2024-03-02T00:20:58;107.23;;;69.43;;
18280;SDS011;9266;51.132;17.062;2024-03-02T00:23:28;110.07;;;68.30;;
18280;SDS011;9266;51.132;17.062;2024-03-02T00:25:57;109.63;;;69.27;;
18280;SDS011;9266;51.132;17.062;2024-03-02T00:28:25;105.83;;;67.63;;
18280;SDS011;9266;51.132;17.062;2024-03-02T00:30:56;111.17;;;68.37;;
18280;SDS011;9266;51.132;17.062;2024-03-02T00:33:26;113.87;;;70.93;;
18280;SDS011;9266;51.132;17.062;2024-03-02T00:35:57;110.77;;;69.70;;
18280;SDS011;9266;51.132;17.062;2024-03-02T00:38:26;110.07;;;65.57;;
18280;SDS011;9266;51.132;17.062;2024-03-02T00:40:54;109.83;;;71.10;;
18280;SDS011;9266;51.132;17.062;2024-03-02T00:43:33;110.63;;;70.53;;
18280;SDS011;9266;51.132;17.062;2024-03-02T00:46:08;110.37;;;69.43;;
18280;SDS011;9266;51.132;17.062;2024-03-02T00:48:38;108.70;;;69.33;;
18280;SDS011;9266;51.132;17.062;2024-03-02T00:51:10;110.33;;;69.23;;
18280;SDS011;9266;51.132;17.062;2024-03-02T00:53:37;109.10;;;70.87;;
18280;SDS011;9266;51.132;17.062;2024-03-02T00:56:05;108.23;;;66.80;;
18280;SDS011;9266;51.132;17.062;2024-03-02T00:58:36;114.13;;;69.90;;
18280;SDS011;9266;51.132;17.062;2024-03-02T01:01:04;108.20;;;70.57;;
18280;SDS011;9266;51.132;17.062;2024-03-02T01:03:32;117.80;;;72.80;;
18280;SDS011;9266;51.132;17.062;2024-03-02T01:06:00;115.13;;;70.97;;
18280;SDS011;9266;51.132;17.062;2024-03-02T01:08:27;115.03;;;69.97;;
18280;SDS011;9266;51.132;17.062;2024-03-02T01:10:54;118.90;;;70.40;;
18280;SDS011;9266;51.132;17.062;2024-03-02T01:13:21;107.00;;;69.33;;
18280;SDS011;9266;51.132;17.062;2024-03-02T01:15:49;114.03;;;70.50;;
18280;SDS011;9266;51.132;17.062;2024-03-02T01:18:16;116.97;;;70.60;;
18280;SDS011;9266;51.132;17.062;2024-03-02T01:20:42;109.37;;;71.30;;
18280;SDS011;9266;51.132;17.062;2024-03-02T01:23:11;115.43;;;73.70;;
18280;SDS011;9266;51.132;17.062;2024-03-02T01:25:38;111.50;;;69.80;;
18280;SDS011;9266;51.132;17.062;2024-03-02T01:28:05;114.43;;;73.10;;
18280;SDS011;9266;51.132;17.062;2024-03-02T01:30:32;115.47;;;73.17;;
18280;SDS011;9266;51.132;17.062;2024-03-02T01:33:00;111.83;;;70.67;;
18280;SDS011;9266;51.132;17.062;2024-03-02T01:35:27;119.90;;;73.73;;
18280;SDS011;9266;51.132;17.062;2024-03-02T01:37:54;120.27;;;72.77;;
18280;SDS011;9266;51.132;17.062;2024-03-02T01:40:22;119.83;;;73.47;;
18280;SDS011;9266;51.132;17.062;2024-03-02T01:42:51;119.27;;;72.43;;
18280;SDS011;9266;51.132;17.062;2024-03-02T01:45:19;118.07;;;73.87;;
18280;SDS011;9266;51.132;17.062;2024-03-02T01:47:46;117.17;;;75.83;;
18280;SDS011;9266;51.132;17.062;2024-03-02T01:50:13;120.90;;;75.40;;
18280;SDS011;9266;51.132;17.062;2024-03-02T01:52:40;124.20;;;74.53;;
18280;SDS011;9266;51.132;17.062;2024-03-02T01:55:09;120.90;;;74.83;;
18280;SDS011;9266;51.132;17.062;2024-03-02T01:57:37;112.47;;;71.73;;
18280;SDS011;9266;51.132;17.062;2024-03-02T02:00:05;115.77;;;74.77;;
18280;SDS011;9266;51.132;17.062;2024-03-02T02:02:35;124.83;;;75.23;;
18280;SDS011;9266;51.132;17.062;2024-03-02T02:05:02;121.97;;;75.47;;
18280;SDS011;9266;51.132;17.062;2024-03-02T02:07:29;119.50;;;74.17;;
18280;SDS011;9266;51.132;17.062;2024-03-02T02:09:56;116.07;;;73.67;;
18280;SDS011;9266;51.132;17.062;2024-03-02T02:12:23;122.17;;;73.90;;
18280;SDS011;9266;51.132;17.062;2024-03-02T02:14:52;122.20;;;72.50;;
18280;SDS011;9266;51.132;17.062;2024-03-02T02:17:19;121.27;;;74.27;;
18280;SDS011;9266;51.132;17.062;2024-03-02T02:19:46;125.27;;;74.83;;
18280;SDS011;9266;51.132;17.062;2024-03-02T02:22:14;123.43;;;74.63;;
18280;SDS011;9266;51.132;17.062;2024-03-02T02:24:41;127.67;;;76.67;;
18280;SDS011;9266;51.132;17.062;2024-03-02T02:27:09;113.40;;;73.60;;
18280;SDS011;9266;51.132;17.062;2024-03-02T02:29:37;119.83;;;75.50;;
18280;SDS011;9266;51.132;17.062;2024-03-02T02:32:05;111.20;;;69.93;;
18280;SDS011;9266;51.132;17.062;2024-03-02T02:34:32;119.87;;;71.17;;
18280;SDS011;9266;51.132;17.062;2024-03-02T02:36:59;119.10;;;74.77;;
18280;SDS011;9266;51.132;17.062;2024-03-02T02:39:28;109.93;;;71.57;;
18280;SDS011;9266;51.132;17.062;2024-03-02T02:41:55;118.53;;;73.23;;
18280;SDS011;9266;51.132;17.062;2024-03-02T02:44:22;113.47;;;70.07;;
18280;SDS011;9266;51.132;17.062;2024-03-02T02:46:49;113.57;;;71.17;;
18280;SDS011;9266;51.132;17.062;2024-03-02T02:49:16;121.33;;;72.80;;
18280;SDS011;9266;51.132;17.062;2024-03-02T02:51:43;114.40;;;72.03;;
18280;SDS011;9266;51.132;17.062;2024-03-02T02:54:10;114.17;;;70.53;;
18280;SDS011;9266;51.132;17.062;2024-03-02T02:56:38;117.97;;;71.40;;
18280;SDS011;9266;51.132;17.062;2024-03-02T02:59:05;123.90;;;72.37;;
18280;SDS011;9266;51.132;17.062;2024-03-02T03:01:32;121.33;;;70.47;;
18280;SDS011;9266;51.132;17.062;2024-03-02T03:03:59;120.70;;;71.13;;
18280;SDS011;9266;51.132;17.062;2024-03-02T03:06:26;115.57;;;70.73;;
18280;SDS011;9266;51.132;17.062;2024-03-02T03:08:53;123.17;;;70.60;;
18280;SDS011;9266;51.132;17.062;2024-03-02T03:11:20;119.87;;;73.70;;
18280;SDS011;9266;51.132;17.062;2024-03-02T03:13:49;125.97;;;72.70;;
18280;SDS011;9266;51.132;17.062;2024-03-02T03:16:16;120.27;;;74.63;;
18280;SDS011;9266;51.132;17.062;2024-03-02T03:18:43;126.87;;;74.40;;
18280;SDS011;9266;51.132;17.062;2024-03-02T03:21:10;132.20;;;79.50;;
18280;SDS011;9266;51.132;17.062;2024-03-02T03:23:37;134.23;;;78.60;;
18280;SDS011;9266;51.132;17.062;2024-03-02T03:26:04;126.00;;;75.40;;
18280;SDS011;9266;51.132;17.062;2024-03-02T03:28:31;125.43;;;77.43;;
18280;SDS011;9266;51.132;17.062;2024-03-02T03:30:59;126.20;;;74.47;;
18280;SDS011;9266;51.132;17.062;2024-03-02T03:33:27;130.43;;;75.77;;
18280;SDS011;9266;51.132;17.062;2024-03-02T03:35:54;125.97;;;73.23;;
18280;SDS011;9266;51.132;17.062;2024-03-02T03:38:21;119.57;;;72.50;;
18280;SDS011;9266;51.132;17.062;2024-03-02T03:40:48;121.30;;;75.93;;
18280;SDS011;9266;51.132;17.062;2024-03-02T03:43:15;117.07;;;73.63;;
18280;SDS011;9266;51.132;17.062;2024-03-02T03:45:42;128.33;;;74.87;;
18280;SDS011;9266;51.132;17.062;2024-03-02T03:48:10;124.43;;;75.73;;
18280;SDS011;9266;51.132;17.062;2024-03-02T03:50:37;115.03;;;71.90;;
18280;SDS011;9266;51.132;17.062;2024-03-02T03:53:04;120.50;;;74.50;;
18280;SDS011;9266;51.132;17.062;2024-03-02T03:55:31;127.17;;;72.67;;
18280;SDS011;9266;51.132;17.062;2024-03-02T03:57:58;122.77;;;73.97;;
18280;SDS011;9266;51.132;17.062;2024-03-02T04:00:25;113.07;;;67.90;;
18280;SDS011;9266;51.132;17.062;2024-03-02T04:02:52;115.27;;;69.80;;
18280;SDS011;9266;51.132;17.062;2024-03-02T04:05:21;110.57;;;68.57;;
18280;SDS011;9266;51.132;17.062;2024-03-02T04:07:47;120.17;;;69.73;;
18280;SDS011;9266;51.132;17.062;2024-03-02T04:10:14;110.00;;;67.87;;
18280;SDS011;9266;51.132;17.062;2024-03-02T04:12:42;115.40;;;67.90;;
18280;SDS011;9266;51.132;17.062;2024-03-02T04:15:09;108.80;;;65.33;;
18280;SDS011;9266;51.132;17.062;2024-03-02T04:17:36;105.33;;;65.27;;
18280;SDS011;9266;51.132;17.062;2024-03-02T04:20:03;111.50;;;65.67;;
18280;SDS011;9266;51.132;17.062;2024-03-02T04:22:33;104.87;;;63.33;;
18280;SDS011;9266;51.132;17.062;2024-03-02T04:25:01;98.67;;;62.77;;
18280;SDS011;9266;51.132;17.062;2024-03-02T04:27:29;102.20;;;61.53;;
18280;SDS011;9266;51.132;17.062;2024-03-02T04:29:58;95.90;;;60.80;;
18280;SDS011;9266;51.132;17.062;2024-03-02T04:32:26;99.97;;;62.27;;
18280;SDS011;9266;51.132;17.062;2024-03-02T04:34:53;98.00;;;61.20;;
18280;SDS011;9266;51.132;17.062;2024-03-02T04:37:20;95.37;;;59.63;;
18280;SDS011;9266;51.132;17.062;2024-03-02T04:39:48;102.70;;;61.43;;
18280;SDS011;9266;51.132;17.062;2024-03-02T04:42:15;98.67;;;62.17;;
18280;SDS011;9266;51.132;17.062;2024-03-02T04:44:42;94.63;;;59.40;;
18280;SDS011;9266;51.132;17.062;2024-03-02T04:47:09;93.03;;;58.73;;
18280;SDS011;9266;51.132;17.062;2024-03-02T04:49:36;94.10;;;57.87;;
18280;SDS011;9266;51.132;17.062;2024-03-02T04:52:03;96.60;;;59.13;;
18280;SDS011;9266;51.132;17.062;2024-03-02T04:54:30;97.20;;;58.37;;
18280;SDS011;9266;51.132;17.062;2024-03-02T04:56:58;89.97;;;55.53;;
18280;SDS011;9266;51.132;17.062;2024-03-02T04:59:25;92.10;;;57.50;;
18280;SDS011;9266;51.132;17.062;2024-03-02T05:01:52;97.20;;;57.40;;
18280;SDS011;9266;51.132;17.062;2024-03-02T05:04:19;94.47;;;57.73;;
18280;SDS011;9266;51.132;17.062;2024-03-02T05:06:46;92.50;;;57.57;;
18280;SDS011;9266;51.132;17.062;2024-03-02T05:09:17;93.20;;;57.13;;
18280;SDS011;9266;51.132;17.062;2024-03-02T05:11:44;88.87;;;54.87;;
18280;SDS011;9266;51.132;17.062;2024-03-02T05:14:38;90.13;;;56.33;;
18280;SDS011;9266;51.132;17.062;2024-03-02T05:17:05;90.67;;;57.27;;
18280;SDS011;9266;51.132;17.062;2024-03-02T05:19:32;84.03;;;56.77;;
18280;SDS011;9266;51.132;17.062;2024-03-02T05:21:59;88.63;;;56.20;;
18280;SDS011;9266;51.132;17.062;2024-03-02T05:24:26;85.93;;;54.53;;
18280;SDS011;9266;51.132;17.062;2024-03-02T05:26:53;91.77;;;56.77;;
18280;SDS011;9266;51.132;17.062;2024-03-02T05:29:20;90.97;;;57.20;;
18280;SDS011;9266;51.132;17.062;2024-03-02T05:31:49;92.13;;;56.80;;
18280;SDS011;9266;51.132;17.062;2024-03-02T05:34:15;95.03;;;56.90;;
18280;SDS011;9266;51.132;17.062;2024-03-02T05:36:43;88.57;;;56.10;;
18280;SDS011;9266;51.132;17.062;2024-03-02T05:39:10;92.10;;;55.40;;
18280;SDS011;9266;51.132;17.062;2024-03-02T05:41:37;89.03;;;58.17;;
18280;SDS011;9266;51.132;17.062;2024-03-02T05:44:04;97.30;;;56.47;;
18280;SDS011;9266;51.132;17.062;2024-03-02T05:46:31;93.83;;;57.60;;
18280;SDS011;9266;51.132;17.062;2024-03-02T05:49:00;93.60;;;56.97;;
18280;SDS011;9266;51.132;17.062;2024-03-02T05:51:27;96.70;;;58.53;;
18280;SDS011;9266;51.132;17.062;2024-03-02T05:53:54;88.77;;;58.23;;
18280;SDS011;9266;51.132;17.062;2024-03-02T05:56:21;97.63;;;58.57;;
18280;SDS011;9266;51.132;17.062;2024-03-02T05:58:47;92.83;;;57.70;;
18280;SDS011;9266;51.132;17.062;2024-03-02T06:01:26;95.63;;;59.37;;
18280;SDS011;9266;51.132;17.062;2024-03-02T06:03:54;93.93;;;59.10;;
18280;SDS011;9266;51.132;17.062;2024-03-02T06:06:23;85.93;;;55.63;;
18280;SDS011;9266;51.132;17.062;2024-03-02T06:08:50;92.97;;;59.47;;
18280;SDS011;9266;51.132;17.062;2024-03-02T06:11:18;96.17;;;59.07;;
18280;SDS011;9266;51.132;17.062;2024-03-02T06:13:46;98.07;;;59.30;;
18280;SDS011;9266;51.132;17.062;2024-03-02T06:16:12;104.30;;;62.27;;
18280;SDS011;9266;51.132;17.062;2024-03-02T06:18:39;106.87;;;66.30;;
18280;SDS011;9266;51.132;17.062;2024-03-02T06:21:06;102.67;;;63.57;;
18280;SDS011;9266;51.132;17.062;2024-03-02T06:23:35;105.53;;;66.27;;
18280;SDS011;9266;51.132;17.062;2024-03-02T06:26:02;113.10;;;68.33;;
18280;SDS011;9266;51.132;17.062;2024-03-02T06:28:29;108.20;;;68.70;;
18280;SDS011;9266;51.132;17.062;2024-03-02T06:30:56;108.30;;;67.80;;
18280;SDS011;9266;51.132;17.062;2024-03-02T06:33:23;114.60;;;70.60;;
18280;SDS011;9266;51.132;17.062;2024-03-02T06:35:50;114.60;;;69.70;;
18280;SDS011;9266;51.132;17.062;2024-03-02T06:38:17;113.60;;;71.27;;
18280;SDS011;9266;51.132;17.062;2024-03-02T06:40:45;111.40;;;71.93;;
18280;SDS011;9266;51.132;17.062;2024-03-02T06:43:12;109.73;;;69.10;;
18280;SDS011;9266;51.132;17.062;2024-03-02T06:45:39;109.40;;;68.37;;
18280;SDS011;9266;51.132;17.062;2024-03-02T06:48:07;103.67;;;67.47;;
18280;SDS011;9266;51.132;17.062;2024-03-02T06:50:34;103.70;;;63.83;;
18280;SDS011;9266;51.132;17.062;2024-03-02T06:53:01;102.97;;;64.13;;
18280;SDS011;9266;51.132;17.062;2024-03-02T06:55:29;96.03;;;63.80;;
18280;SDS011;9266;51.132;17.062;2024-03-02T06:57:57;100.87;;;65.40;;
18280;SDS011;9266;51.132;17.062;2024-03-02T07:00:24;96.33;;;61.83;;
18280;SDS011;9266;51.132;17.062;2024-03-02T07:02:51;93.23;;;60.47;;
18280;SDS011;9266;51.132;17.062;2024-03-02T07:05:18;95.83;;;60.43;;
18280;SDS011;9266;51.132;17.062;2024-03-02T07:07:46;87.50;;;57.73;;
18280;SDS011;9266;51.132;17.062;2024-03-02T07:10:13;88.70;;;56.63;;
18280;SDS011;9266;51.132;17.062;2024-03-02T07:12:39;88.00;;;58.40;;
18280;SDS011;9266;51.132;17.062;2024-03-02T07:15:08;85.40;;;55.90;;
18280;SDS011;9266;51.132;17.062;2024-03-02T07:17:55;93.30;;;57.60;;
18280;SDS011;9266;51.132;17.062;2024-03-02T07:20:22;82.03;;;53.90;;
18280;SDS011;9266;51.132;17.062;2024-03-02T07:22:49;79.47;;;52.73;;
18280;SDS011;9266;51.132;17.062;2024-03-02T07:25:16;77.13;;;50.87;;
18280;SDS011;9266;51.132;17.062;2024-03-02T07:27:42;67.43;;;47.77;;
18280;SDS011;9266;51.132;17.062;2024-03-02T07:30:13;64.93;;;45.77;;
18280;SDS011;9266;51.132;17.062;2024-03-02T07:32:41;63.33;;;43.53;;
18280;SDS011;9266;51.132;17.062;2024-03-02T07:35:11;65.13;;;43.27;;
18280;SDS011;9266;51.132;17.062;2024-03-02T07:37:38;58.00;;;41.57;;
18280;SDS011;9266;51.132;17.062;2024-03-02T07:40:06;55.50;;;40.03;;
18280;SDS011;9266;51.132;17.062;2024-03-02T07:42:36;58.83;;;41.67;;
18280;SDS011;9266;51.132;17.062;2024-03-02T07:45:04;56.00;;;39.27;;
18280;SDS011;9266;51.132;17.062;2024-03-02T07:47:34;56.43;;;40.17;;
18280;SDS011;9266;51.132;17.062;2024-03-02T07:50:01;56.57;;;40.43;;
18280;SDS011;9266;51.132;17.062;2024-03-02T07:52:28;52.63;;;38.80;;
18280;SDS011;9266;51.132;17.062;2024-03-02T07:54:55;51.97;;;38.00;;
18280;SDS011;9266;51.132;17.062;2024-03-02T07:57:22;55.27;;;39.50;;
18280;SDS011;9266;51.132;17.062;2024-03-02T07:59:49;57.70;;;37.83;;
18280;SDS011;9266;51.132;17.062;2024-03-02T08:02:16;53.13;;;37.77;;
18280;SDS011;9266;51.132;17.062;2024-03-02T08:04:45;54.60;;;37.30;;
18280;SDS011;9266;51.132;17.062;2024-03-02T08:07:12;53.23;;;37.33;;
18280;SDS011;9266;51.132;17.062;2024-03-02T08:09:39;51.47;;;38.60;;
18280;SDS011;9266;51.132;17.062;2024-03-02T08:12:06;49.97;;;36.67;;
18280;SDS011;9266;51.132;17.062;2024-03-02T08:14:33;57.93;;;37.83;;
18280;SDS011;9266;51.132;17.062;2024-03-02T08:17:00;48.13;;;37.10;;
18280;SDS011;9266;51.132;17.062;2024-03-02T08:19:27;53.90;;;40.27;;
18280;SDS011;9266;51.132;17.062;2024-03-02T08:21:56;56.30;;;41.23;;
18280;SDS011;9266;51.132;17.062;2024-03-02T08:24:24;54.27;;;41.13;;
18280;SDS011;9266;51.132;17.062;2024-03-02T08:26:51;56.90;;;41.33;;
18280;SDS011;9266;51.132;17.062;2024-03-02T08:29:18;57.50;;;41.80;;
18280;SDS011;9266;51.132;17.062;2024-03-02T08:31:45;66.30;;;46.67;;
18280;SDS011;9266;51.132;17.062;2024-03-02T08:34:12;74.67;;;50.57;;
18280;SDS011;9266;51.132;17.062;2024-03-02T08:36:39;78.27;;;51.17;;
18280;SDS011;9266;51.132;17.062;2024-03-02T08:39:08;79.37;;;54.07;;
18280;SDS011;9266;51.132;17.062;2024-03-02T08:41:40;78.40;;;54.90;;
18280;SDS011;9266;51.132;17.062;2024-03-02T08:44:08;79.20;;;54.70;;
18280;SDS011;9266;51.132;17.062;2024-03-02T08:46:35;83.57;;;55.10;;
18280;SDS011;9266;51.132;17.062;2024-03-02T08:49:02;74.10;;;52.07;;
18280;SDS011;9266;51.132;17.062;2024-03-02T08:51:29;72.73;;;50.07;;
18280;SDS011;9266;51.132;17.062;2024-03-02T08:53:56;70.50;;;49.57;;
18280;SDS011;9266;51.132;17.062;2024-03-02T08:56:25;69.53;;;50.27;;
18280;SDS011;9266;51.132;17.062;2024-03-02T08:58:52;69.20;;;48.47;;
18280;SDS011;9266;51.132;17.062;2024-03-02T09:01:19;68.07;;;49.07;;
18280;SDS011;9266;51.132;17.062;2024-03-02T09:03:46;69.60;;;47.03;;
18280;SDS011;9266;51.132;17.062;2024-03-02T09:06:14;62.70;;;44.77;;
18280;SDS011;9266;51.132;17.062;2024-03-02T09:08:42;66.30;;;46.07;;
18280;SDS011;9266;51.132;17.062;2024-03-02T09:11:10;70.63;;;48.33;;
18280;SDS011;9266;51.132;17.062;2024-03-02T09:13:39;65.57;;;44.90;;
18280;SDS011;9266;51.132;17.062;2024-03-02T09:16:06;60.70;;;43.40;;
18280;SDS011;9266;51.132;17.062;2024-03-02T09:18:36;59.93;;;43.40;;
18280;SDS011;9266;51.132;17.062;2024-03-02T09:21:03;58.07;;;42.33;;
18280;SDS011;9266;51.132;17.062;2024-03-02T09:23:30;60.37;;;41.13;;
18280;SDS011;9266;51.132;17.062;2024-03-02T09:25:57;58.77;;;40.70;;
18280;SDS011;9266;51.132;17.062;2024-03-02T09:28:24;54.90;;;40.87;;
18280;SDS011;9266;51.132;17.062;2024-03-02T09:30:52;55.00;;;40.40;;
18280;SDS011;9266;51.132;17.062;2024-03-02T09:33:19;56.23;;;40.83;;
18280;SDS011;9266;51.132;17.062;2024-03-02T09:35:46;60.40;;;40.17;;
18280;SDS011;9266;51.132;17.062;2024-03-02T09:38:13;56.70;;;37.33;;
18280;SDS011;9266;51.132;17.062;2024-03-02T09:40:41;48.33;;;36.60;;
18280;SDS011;9266;51.132;17.062;2024-03-02T09:43:08;55.17;;;36.53;;
18280;SDS011;9266;51.132;17.062;2024-03-02T09:45:35;49.17;;;34.10;;
18280;SDS011;9266;51.132;17.062;2024-03-02T09:48:04;44.03;;;32.87;;
18280;SDS011;9266;51.132;17.062;2024-03-02T09:50:32;40.37;;;29.37;;
18280;SDS011;9266;51.132;17.062;2024-03-02T09:52:59;46.20;;;31.17;;
18280;SDS011;9266;51.132;17.062;2024-03-02T09:55:27;46.20;;;32.93;;
18280;SDS011;9266;51.132;17.062;2024-03-02T09:57:54;44.63;;;33.50;;
18280;SDS011;9266;51.132;17.062;2024-03-02T10:00:21;46.20;;;33.90;;
18280;SDS011;9266;51.132;17.062;2024-03-02T10:02:48;47.50;;;35.50;;
18280;SDS011;9266;51.132;17.062;2024-03-02T10:05:24;63.17;;;43.47;;
18280;SDS011;9266;51.132;17.062;2024-03-02T10:07:59;61.37;;;44.70;;
18280;SDS011;9266;51.132;17.062;2024-03-02T10:10:34;57.87;;;43.60;;
18280;SDS011;9266;51.132;17.062;2024-03-02T10:13:05;56.60;;;41.83;;
18280;SDS011;9266;51.132;17.062;2024-03-02T10:15:34;61.23;;;43.67;;
18280;SDS011;9266;51.132;17.062;2024-03-02T10:18:02;65.63;;;46.43;;
18280;SDS011;9266;51.132;17.062;2024-03-02T10:20:31;66.33;;;45.03;;
18280;SDS011;9266;51.132;17.062;2024-03-02T10:23:09;60.07;;;42.70;;
18280;SDS011;9266;51.132;17.062;2024-03-02T10:25:36;56.17;;;41.87;;
18280;SDS011;9266;51.132;17.062;2024-03-02T10:28:04;61.77;;;43.30;;
18280;SDS011;9266;51.132;17.062;2024-03-02T10:30:31;59.80;;;43.27;;
18280;SDS011;9266;51.132;17.062;2024-03-02T10:32:59;60.33;;;42.40;;
18280;SDS011;9266;51.132;17.062;2024-03-02T10:35:28;57.10;;;41.10;;
18280;SDS011;9266;51.132;17.062;2024-03-02T10:37:57;48.53;;;34.33;;
18280;SDS011;9266;51.132;17.062;2024-03-02T10:40:26;44.87;;;34.63;;
18280;SDS011;9266;51.132;17.062;2024-03-02T10:42:53;47.60;;;36.60;;
18280;SDS011;9266;51.132;17.062;2024-03-02T10:45:21;48.20;;;36.90;;
18280;SDS011;9266;51.132;17.062;2024-03-02T10:47:49;51.17;;;38.57;;
18280;SDS011;9266;51.132;17.062;2024-03-02T10:50:17;51.27;;;38.30;;
18280;SDS011;9266;51.132;17.062;2024-03-02T10:52:44;54.13;;;39.77;;
18280;SDS011;9266;51.132;17.062;2024-03-02T10:55:13;56.60;;;40.30;;
18280;SDS011;9266;51.132;17.062;2024-03-02T10:57:45;53.53;;;40.20;;
18280;SDS011;9266;51.132;17.062;2024-03-02T11:00:17;50.80;;;38.53;;
18280;SDS011;9266;51.132;17.062;2024-03-02T11:02:50;45.13;;;34.00;;
18280;SDS011;9266;51.132;17.062;2024-03-02T11:05:21;47.50;;;34.40;;
18280;SDS011;9266;51.132;17.062;2024-03-02T11:07:53;43.07;;;32.00;;
18280;SDS011;9266;51.132;17.062;2024-03-02T11:10:29;38.13;;;27.70;;
18280;SDS011;9266;51.132;17.062;2024-03-02T11:13:02;35.07;;;26.07;;
18280;SDS011;9266;51.132;17.062;2024-03-02T11:15:35;34.37;;;26.17;;
18280;SDS011;9266;51.132;17.062;2024-03-02T11:18:03;36.93;;;25.80;;
18280;SDS011;9266;51.132;17.062;2024-03-02T11:20:34;34.73;;;25.73;;
18280;SDS011;9266;51.132;17.062;2024-03-02T11:23:04;33.77;;;25.83;;
18280;SDS011;9266;51.132;17.062;2024-03-02T11:25:33;36.43;;;25.27;;
18280;SDS011;9266;51.132;17.062;2024-03-02T11:28:04;31.47;;;24.10;;
18280;SDS011;9266;51.132;17.062;2024-03-02T11:30:49;32.07;;;24.60;;
18280;SDS011;9266;51.132;17.062;2024-03-02T11:33:23;35.87;;;24.10;;
18280;SDS011;9266;51.132;17.062;2024-03-02T11:35:52;35.30;;;25.33;;
18280;SDS011;9266;51.132;17.062;2024-03-02T11:38:19;32.60;;;26.17;;
18280;SDS011;9266;51.132;17.062;2024-03-02T11:40:48;30.43;;;23.60;;
18280;SDS011;9266;51.132;17.062;2024-03-02T11:43:15;33.03;;;23.70;;
18280;SDS011;9266;51.132;17.062;2024-03-02T11:45:42;33.57;;;23.87;;
18280;SDS011;9266;51.132;17.062;2024-03-02T11:48:11;31.13;;;23.40;;
18280;SDS011;9266;51.132;17.062;2024-03-02T11:50:40;32.53;;;24.50;;
18280;SDS011;9266;51.132;17.062;2024-03-02T11:53:09;31.40;;;24.63;;
18280;SDS011;9266;51.132;17.062;2024-03-02T11:55:37;32.97;;;23.97;;
18280;SDS011;9266;51.132;17.062;2024-03-02T11:58:07;34.10;;;25.23;;
18280;SDS011;9266;51.132;17.062;2024-03-02T12:00:34;31.33;;;24.27;;
18280;SDS011;9266;51.132;17.062;2024-03-02T12:03:02;31.33;;;24.30;;
18280;SDS011;9266;51.132;17.062;2024-03-02T12:05:32;35.67;;;24.70;;
18280;SDS011;9266;51.132;17.062;2024-03-02T12:08:01;35.70;;;25.20;;
18280;SDS011;9266;51.132;17.062;2024-03-02T12:10:29;33.33;;;24.53;;
18280;SDS011;9266;51.132;17.062;2024-03-02T12:12:57;36.70;;;25.17;;
18280;SDS011;9266;51.132;17.062;2024-03-02T12:15:27;30.67;;;24.27;;
18280;SDS011;9266;51.132;17.062;2024-03-02T12:17:55;34.90;;;25.23;;
18280;SDS011;9266;51.132;17.062;2024-03-02T12:20:23;30.20;;;23.47;;
18280;SDS011;9266;51.132;17.062;2024-03-02T12:22:51;32.70;;;25.00;;
18280;SDS011;9266;51.132;17.062;2024-03-02T12:25:19;29.87;;;22.43;;
18280;SDS011;9266;51.132;17.062;2024-03-02T12:27:46;33.37;;;24.87;;
18280;SDS011;9266;51.132;17.062;2024-03-02T12:30:16;32.90;;;22.73;;
18280;SDS011;9266;51.132;17.062;2024-03-02T12:32:44;30.97;;;22.97;;
18280;SDS011;9266;51.132;17.062;2024-03-02T12:35:12;34.03;;;22.53;;
18280;SDS011;9266;51.132;17.062;2024-03-02T12:37:43;32.80;;;22.37;;
18280;SDS011;9266;51.132;17.062;2024-03-02T12:40:11;24.57;;;18.93;;
18280;SDS011;9266;51.132;17.062;2024-03-02T12:42:39;24.93;;;19.43;;
18280;SDS011;9266;51.132;17.062;2024-03-02T12:45:07;26.53;;;20.07;;
18280;SDS011;9266;51.132;17.062;2024-03-02T12:47:34;26.40;;;20.90;;
18280;SDS011;9266;51.132;17.062;2024-03-02T12:50:03;28.63;;;20.60;;
18280;SDS011;9266;51.132;17.062;2024-03-02T12:52:31;28.30;;;21.53;;
18280;SDS011;9266;51.132;17.062;2024-03-02T12:54:59;29.43;;;21.47;;
18280;SDS011;9266;51.132;17.062;2024-03-02T12:57:28;24.87;;;20.77;;
18280;SDS011;9266;51.132;17.062;2024-03-02T12:59:59;27.57;;;20.77;;
18280;SDS011;9266;51.132;17.062;2024-03-02T13:02:27;27.07;;;20.90;;
18280;SDS011;9266;51.132;17.062;2024-03-02T13:04:55;25.63;;;18.70;;
18280;SDS011;9266;51.132;17.062;2024-03-02T13:07:25;25.20;;;17.93;;
18280;SDS011;9266;51.132;17.062;2024-03-02T13:09:52;26.93;;;18.33;;
18280;SDS011;9266;51.132;17.062;2024-03-02T13:12:21;24.73;;;19.63;;
18280;SDS011;9266;51.132;17.062;2024-03-02T13:14:48;26.57;;;19.73;;
18280;SDS011;9266;51.132;17.062;2024-03-02T13:17:17;22.63;;;17.50;;
18280;SDS011;9266;51.132;17.062;2024-03-02T13:19:51;24.10;;;19.13;;
18280;SDS011;9266;51.132;17.062;2024-03-02T13:22:19;27.77;;;19.23;;
18280;SDS011;9266;51.132;17.062;2024-03-02T13:24:48;25.87;;;18.73;;
18280;SDS011;9266;51.132;17.062;2024-03-02T13:27:15;28.30;;;18.87;;
18280;SDS011;9266;51.132;17.062;2024-03-02T13:29:44;27.37;;;20.90;;
18280;SDS011;9266;51.132;17.062;2024-03-02T13:32:12;25.83;;;19.73;;
18280;SDS011;9266;51.132;17.062;2024-03-02T13:34:39;26.67;;;20.47;;
18280;SDS011;9266;51.132;17.062;2024-03-02T13:37:06;31.27;;;21.57;;
18280;SDS011;9266;51.132;17.062;2024-03-02T13:39:33;27.17;;;19.70;;
18280;SDS011;9266;51.132;17.062;2024-03-02T13:42:07;29.47;;;19.00;;
18280;SDS011;9266;51.132;17.062;2024-03-02T13:44:34;24.67;;;18.83;;
18280;SDS011;9266;51.132;17.062;2024-03-02T13:47:02;27.03;;;19.20;;
18280;SDS011;9266;51.132;17.062;2024-03-02T13:49:29;25.93;;;19.60;;
18280;SDS011;9266;51.132;17.062;2024-03-02T13:52:01;30.17;;;20.67;;
18280;SDS011;9266;51.132;17.062;2024-03-02T13:54:36;30.73;;;21.03;;
18280;SDS011;9266;51.132;17.062;2024-03-02T13:57:04;28.57;;;20.63;;
18280;SDS011;9266;51.132;17.062;2024-03-02T13:59:33;29.27;;;21.30;;
18280;SDS011;9266;51.132;17.062;2024-03-02T14:02:00;27.00;;;20.53;;
18280;SDS011;9266;51.132;17.062;2024-03-02T14:04:29;29.97;;;20.53;;
18280;SDS011;9266;51.132;17.062;2024-03-02T14:06:56;33.27;;;21.40;;
18280;SDS011;9266;51.132;17.062;2024-03-02T14:09:23;26.80;;;19.77;;
18280;SDS011;9266;51.132;17.062;2024-03-02T14:11:50;30.67;;;21.13;;
18280;SDS011;9266;51.132;17.062;2024-03-02T14:14:17;28.17;;;20.87;;
18280;SDS011;9266;51.132;17.062;2024-03-02T14:16:46;27.20;;;20.43;;
18280;SDS011;9266;51.132;17.062;2024-03-02T14:19:13;26.47;;;20.10;;
18280;SDS011;9266;51.132;17.062;2024-03-02T14:21:40;25.67;;;19.17;;